Time;durP1;ratioP1;P1;durP2;ratioP2;P2;SDS_P1;SDS_P2;PMS_P1;PMS_P2;Temp;Humidity;BMP_temperature;BMP_pressure;BME280_temperature;BME280_humidity;BME280_pressure;Samples;Min_cycle;Max_cycle;Signal;HPM_P1;HPM_P2
2023/05/25 00:01:02;;;;;;;14.27;10.25;;;;;;;14.90;100.00;102020.00;5032233;28;20061;-73
2023/05/25 00:03:29;;;;;;;15.73;8.88;;;;;;;14.36;100.00;101975.44;5031244;28;20404;-72
2023/05/25 00:05:56;;;;;;;9.82;8.45;;;;;;;14.73;100.00;101999.75;5032514;28;20473;-72
2023/05/25 00:08:22;;;;;;;11.52;8.30;;;;;;;14.48;100.00;101961.66;5049705;28;20059;-71
2023/05/25 00:10:48;;;;;;;10.68;8.25;;;;;;;14.80;100.00;101959.53;5053984;28;20021;-72
2023/05/25 00:13:13;;;;;;;10.50;8.15;;;;;;;14.58;100.00;101938.47;5072100;28;20033;-72
2023/05/25 00:15:39;;;;;;;10.20;7.97;;;;;;;14.78;100.00;101967.22;5071918;28;20037;-72
2023/05/25 00:18:04;;;;;;;10.90;7.93;;;;;;;14.58;100.00;101935.91;5053951;28;20029;-72
2023/05/25 00:20:31;;;;;;;11.52;8.10;;;;;;;14.63;100.00;101977.69;5053866;28;20475;-72
2023/05/25 00:22:58;;;;;;;10.82;7.90;;;;;;;14.98;100.00;101954.16;5071820;28;20052;-72
2023/05/25 00:25:23;;;;;;;10.70;7.30;;;;;;;15.01;100.00;101920.81;5071785;28;20029;-71
2023/05/25 00:27:48;;;;;;;12.68;7.55;;;;;;;14.94;100.00;101893.59;5053981;28;20055;-72
2023/05/25 00:30:14;;;;;;;11.90;7.25;;;;;;;15.27;100.00;101933.22;5071941;28;20029;-72
2023/05/25 00:32:40;;;;;;;8.45;7.20;;;;;;;14.67;100.00;101887.16;5072141;28;20036;-72
2023/05/25 00:35:06;;;;;;;9.50;7.28;;;;;;;15.23;100.00;101950.34;5071383;28;20528;-73
2023/05/25 00:37:31;;;;;;;9.38;8.18;;;;;;;15.26;100.00;101908.47;5072054;28;20046;-72
2023/05/25 00:39:57;;;;;;;9.75;8.27;;;;;;;15.08;100.00;101911.31;5071257;28;20570;-73
2023/05/25 00:42:23;;;;;;;11.18;8.02;;;;;;;15.44;100.00;101952.63;5071373;28;20029;-72
2023/05/25 00:44:49;;;;;;;12.65;8.45;;;;;;;15.07;100.00;101914.75;5071634;28;20550;-72
2023/05/25 00:47:16;;;;;;;10.45;8.77;;;;;;;14.66;100.00;101871.81;5052777;28;20062;-72
2023/05/25 00:49:42;;;;;;;13.55;8.55;;;;;;;14.86;100.00;101908.22;5053912;28;20071;-72
2023/05/25 00:52:10;;;;;;;11.43;8.30;;;;;;;14.99;100.00;101925.13;5071296;28;20475;-73
2023/05/25 00:54:36;;;;;;;11.57;8.88;;;;;;;14.70;100.00;101876.00;5071680;28;20035;-73
2023/05/25 00:57:06;;;;;;;11.10;8.45;;;;;;;14.70;100.00;101850.41;5071152;28;20415;-72
2023/05/25 00:59:45;;;;;;;17.95;9.32;;;;;;;14.48;100.00;101880.59;5071100;28;20138;-72
2023/05/25 01:02:15;;;;;;;12.32;8.75;;;;;;;14.63;100.00;101862.47;5071119;28;20040;-73
2023/05/25 01:04:44;;;;;;;11.90;8.55;;;;;;;14.39;100.00;101798.81;5071842;28;20068;-73
2023/05/25 01:07:11;;;;;;;13.95;8.63;;;;;;;14.17;100.00;101746.22;5071786;28;20548;-73
2023/05/25 01:09:43;;;;;;;9.63;8.30;;;;;;;14.87;100.00;101865.53;5071407;28;20124;-74
2023/05/25 01:12:10;;;;;;;10.98;8.55;;;;;;;14.62;100.00;101834.31;5071084;28;20032;-73
2023/05/25 01:14:39;;;;;;;10.95;8.23;;;;;;;14.12;100.00;101799.19;5071335;28;20509;-73
2023/05/25 01:17:05;;;;;;;14.90;9.20;;;;;;;14.43;100.00;101813.28;5071456;28;20043;-71
2023/05/25 01:19:32;;;;;;;12.00;9.25;;;;;;;14.32;100.00;101778.47;5053117;28;20128;-73
2023/05/25 01:21:57;;;;;;;11.95;8.50;;;;;;;14.73;100.00;101852.94;5071325;28;20037;-73
2023/05/25 01:24:45;;;;;;;15.07;9.55;;;;;;;14.55;100.00;101822.47;5053155;28;20032;-73
2023/05/25 01:27:49;;;;;;;10.90;9.10;;;;;;;14.36;100.00;101754.53;5053159;28;20044;-74
2023/05/25 01:30:16;;;;;;;12.95;8.02;;;;;;;14.43;100.00;101762.09;4953403;28;20093;-72
2023/05/25 01:32:42;;;;;;;11.68;8.13;;;;;;;14.16;100.00;101836.66;5050941;28;20090;-72
2023/05/25 01:35:08;;;;;;;13.43;8.50;;;;;;;13.96;100.00;101820.69;5053350;28;20074;-73
2023/05/25 01:37:36;;;;;;;14.55;8.27;;;;;;;13.77;100.00;101771.47;5070579;28;20404;-72
2023/05/25 01:40:07;;;;;;;14.60;8.57;;;;;;;13.53;100.00;101741.09;5070904;28;20021;-72
2023/05/25 01:42:33;;;;;;;12.13;8.77;;;;;;;13.77;100.00;101793.63;5070889;28;20033;-73
2023/05/25 01:44:58;;;;;;;12.63;8.98;;;;;;;13.58;100.00;101739.34;5071286;28;20051;-72
2023/05/25 01:48:07;;;;;;;14.90;9.20;;;;;;;13.88;100.00;101789.25;5070824;28;20103;-72
2023/05/25 01:50:41;;;;;;;16.13;7.95;;;;;;;14.05;100.00;101789.88;5070901;28;20025;-73
2023/05/25 01:53:14;;;;;;;18.38;8.50;;;;;;;13.52;100.00;101692.56;5070972;28;20024;-71
2023/05/25 01:55:49;;;;;;;14.70;8.10;;;;;;;14.01;100.00;101784.81;5070886;28;20090;-72
2023/05/25 01:58:16;;;;;;;14.85;7.68;;;;;;;14.07;100.00;101766.81;5052608;28;20028;-73
2023/05/25 02:00:48;;;;;;;15.65;7.82;;;;;;;13.65;100.00;101701.75;5053209;28;20081;-72
2023/05/25 02:03:14;;;;;;;14.73;8.43;;;;;;;13.86;100.00;101743.22;5052712;28;20055;-73
2023/05/25 02:05:40;;;;;;;16.88;8.35;;;;;;;14.15;100.00;101813.63;5052541;28;20483;-72
2023/05/25 02:08:06;;;;;;;12.95;8.02;;;;;;;13.65;100.00;101745.22;5052755;28;20111;-72
2023/05/25 02:10:31;;;;;;;15.35;7.88;;;;;;;13.75;100.00;101741.69;5073917;28;20433;-72
2023/05/25 02:12:57;;;;;;;14.52;8.23;;;;;;;13.65;100.00;101694.94;5073822;28;20036;-71
2023/05/25 02:15:23;;;;;;;15.13;8.27;;;;;;;13.76;100.00;101734.00;5074615;28;20130;-73
2023/05/25 02:17:48;;;;;;;13.02;8.52;;;;;;;14.35;100.00;101804.00;5073852;28;20029;-71
2023/05/25 02:20:13;;;;;;;14.43;8.40;;;;;;;14.29;100.00;101775.94;5073760;28;20487;-72
2023/05/25 02:22:39;;;;;;;16.98;8.45;;;;;;;14.08;100.00;101756.59;5056043;28;20419;-72
2023/05/25 02:25:05;;;;;;;11.88;8.02;;;;;;;13.98;100.00;101770.38;5074118;28;20079;-70
2023/05/25 02:27:30;;;;;;;13.80;7.95;;;;;;;14.04;100.00;101761.78;5073890;28;20411;-71
2023/05/25 02:29:55;;;;;;;12.75;8.20;;;;;;;14.22;100.00;101792.22;5074149;28;20483;-71
2023/05/25 02:32:21;;;;;;;13.30;8.02;;;;;;;14.12;100.00;101771.03;5072984;28;20029;-71
2023/05/25 02:34:46;;;;;;;14.07;8.05;;;;;;;14.21;100.00;101796.47;5073726;28;20027;-72
2023/05/25 02:37:12;;;;;;;14.80;8.25;;;;;;;13.65;100.00;101752.88;5073939;28;20093;-72
2023/05/25 02:39:38;;;;;;;12.93;8.73;;;;;;;13.40;100.00;101754.03;5073003;28;20400;-72
2023/05/25 02:42:04;;;;;;;14.20;9.80;;;;;;;13.63;100.00;101780.16;5054787;28;20082;-72
2023/05/25 02:44:30;;;;;;;15.00;9.15;;;;;;;13.36;100.00;101734.47;5055480;28;20472;-71
2023/05/25 02:46:55;;;;;;;14.40;8.80;;;;;;;13.38;100.00;101731.06;5073523;28;20352;-72
2023/05/25 02:49:21;;;;;;;15.88;9.13;;;;;;;13.49;100.00;101723.28;5073394;28;20025;-71
2023/05/25 02:51:46;;;;;;;13.93;9.38;;;;;;;13.69;100.00;101787.75;5073734;28;20031;-72
2023/05/25 02:54:12;;;;;;;15.38;10.05;;;;;;;13.64;100.00;101789.53;5055506;28;20028;-71
2023/05/25 02:56:37;;;;;;;18.15;9.93;;;;;;;13.83;100.00;101786.75;5072762;28;20028;-71
2023/05/25 02:59:02;;;;;;;15.93;10.27;;;;;;;13.51;100.00;101765.00;5073680;28;20504;-71
2023/05/25 03:01:29;;;;;;;14.13;10.75;;;;;;;13.04;100.00;101715.25;5073209;28;20411;-72
2023/05/25 03:03:55;;;;;;;14.77;11.20;;;;;;;13.70;100.00;101800.56;5055361;28;20471;-72
2023/05/25 03:06:21;;;;;;;16.10;11.02;;;;;;;13.72;100.00;101772.41;5055308;28;20123;-71
2023/05/25 03:08:47;;;;;;;15.52;10.95;;;;;;;13.80;100.00;101761.22;5072737;28;20495;-71
2023/05/25 03:11:13;;;;;;;18.75;11.43;;;;;;;13.33;100.00;101697.03;5073478;28;20101;-72
2023/05/25 03:13:39;;;;;;;16.20;11.35;;;;;;;13.88;100.00;101756.84;5055125;28;20079;-71
2023/05/25 03:16:05;;;;;;;15.95;11.75;;;;;;;13.40;100.00;101724.22;5073238;28;20028;-71
2023/05/25 03:18:36;;;;;;;15.10;11.02;;;;;;;13.47;100.00;101707.13;5072439;28;20493;-72
2023/05/25 03:21:01;;;;;;;15.85;11.35;;;;;;;13.90;100.00;101747.44;5054745;28;20502;-72
2023/05/25 03:23:27;;;;;;;14.70;10.43;;;;;;;14.20;100.00;101740.22;5072694;28;20025;-72
2023/05/25 03:25:52;;;;;;;17.42;11.65;;;;;;;14.22;100.00;101762.34;5072938;28;20475;-72
2023/05/25 03:28:18;;;;;;;18.05;10.65;;;;;;;14.01;100.00;101774.59;5072748;28;20494;-73
2023/05/25 03:30:43;;;;;;;16.50;11.43;;;;;;;14.15;100.00;101775.25;5069738;28;20020;-73
2023/05/25 03:33:08;;;;;;;16.48;11.90;;;;;;;14.14;100.00;101755.66;5046198;28;20125;-71
2023/05/25 03:35:34;;;;;;;19.17;13.18;;;;;;;14.06;100.00;101737.88;5052367;28;20120;-71
2023/05/25 03:37:59;;;;;;;17.83;12.73;;;;;;;14.40;100.00;101768.97;5062248;28;20032;-73
2023/05/25 03:40:25;;;;;;;20.92;12.90;;;;;;;14.18;100.00;101759.88;5072249;28;20063;-71
2023/05/25 03:42:50;;;;;;;16.95;12.18;;;;;;;14.03;100.00;101712.31;5054197;28;20044;-72
2023/05/25 03:45:16;;;;;;;19.20;13.35;;;;;;;14.28;100.00;101771.69;5072093;28;20029;-72
2023/05/25 03:47:41;;;;;;;17.73;12.20;;;;;;;14.60;100.00;101747.28;5071955;28;20036;-73
2023/05/25 03:50:07;;;;;;;16.42;12.60;;;;;;;14.28;100.00;101677.84;5070975;28;20024;-72
2023/05/25 03:52:33;;;;;;;19.90;13.73;;;;;;;14.59;100.00;101726.84;5054490;28;20435;-72
2023/05/25 03:55:00;;;;;;;18.60;12.82;;;;;;;14.91;100.00;101747.66;5071205;28;20028;-73
2023/05/25 03:57:27;;;;;;;16.95;12.32;;;;;;;14.54;100.00;101700.47;5053813;28;20048;-71
2023/05/25 03:59:52;;;;;;;14.23;12.25;;;;;;;14.99;100.00;101743.25;5054216;28;20047;-71
2023/05/25 04:02:17;;;;;;;18.83;13.27;;;;;;;14.78;100.00;101712.84;5071225;28;20518;-71
2023/05/25 04:04:43;;;;;;;18.42;12.75;;;;;;;14.45;100.00;101665.66;5072207;28;20107;-71
2023/05/25 04:07:09;;;;;;;16.73;12.90;;;;;;;14.62;100.00;101711.44;5070005;28;20056;-72
2023/05/25 04:09:35;;;;;;;22.13;12.10;;;;;;;14.47;100.00;101720.22;5072193;28;20052;-71
2023/05/25 04:12:01;;;;;;;21.92;11.52;;;;;;;14.44;100.00;101716.88;5072282;28;20029;-72
2023/05/25 04:14:26;;;;;;;17.75;10.68;;;;;;;14.92;100.00;101718.59;5072488;28;20020;-74
2023/05/25 04:16:52;;;;;;;18.50;10.50;;;;;;;14.94;100.00;101726.22;5070694;28;20396;-74
2023/05/25 04:19:17;;;;;;;17.50;11.07;;;;;;;14.78;100.00;101715.41;5072328;28;20037;-74
2023/05/25 04:21:43;;;;;;;17.92;11.25;;;;;;;14.82;100.00;101711.94;5054290;28;20093;-74
2023/05/25 04:24:08;;;;;;;20.63;10.93;;;;;;;14.93;100.00;101757.88;5071853;28;20035;-74
2023/05/25 04:26:33;;;;;;;16.23;11.65;;;;;;;15.06;100.00;101731.16;5054126;28;20031;-75
2023/05/25 04:29:00;;;;;;;17.35;11.20;;;;;;;15.52;100.00;101786.69;5072011;28;20483;-74
2023/05/25 04:31:26;;;;;;;19.20;11.85;;;;;;;15.35;100.00;101745.09;5053952;28;20063;-73
2023/05/25 04:33:52;;;;;;;19.67;12.63;;;;;;;15.71;100.00;101779.47;5053412;28;20032;-74
2023/05/25 04:36:17;;;;;;;17.15;12.00;;;;;;;15.72;100.00;101791.44;5071941;28;20415;-73
2023/05/25 04:38:47;;;;;;;17.27;11.65;;;;;;;16.14;100.00;101784.56;5064373;28;20096;-73
2023/05/25 04:41:13;;;;;;;17.33;11.68;;;;;;;16.04;100.00;101794.19;5051714;28;20029;-73
2023/05/25 04:43:39;;;;;;;18.10;10.98;;;;;;;15.96;100.00;101742.19;5054492;28;20428;-71
2023/05/25 04:46:06;;;;;;;18.38;11.00;;;;;;;16.55;100.00;101828.16;5042007;28;20086;-72
2023/05/25 04:48:33;;;;;;;18.20;12.30;;;;;;;16.20;100.00;101785.25;5071628;28;20522;-72
2023/05/25 04:51:01;;;;;;;16.73;12.02;;;;;;;16.16;100.00;101750.28;5053452;28;20031;-74
2023/05/25 04:53:28;;;;;;;15.27;11.93;;;;;;;16.51;100.00;101805.16;5053633;28;20431;-72
2023/05/25 04:55:54;;;;;;;17.45;12.25;;;;;;;16.22;100.00;101803.22;5069384;28;20540;-72
2023/05/25 04:58:23;;;;;;;18.02;11.70;;;;;;;16.41;100.00;101850.69;5071148;28;20025;-72
2023/05/25 05:00:48;;;;;;;16.17;12.18;;;;;;;16.25;100.00;101826.22;5064029;28;20487;-74
2023/05/25 05:03:14;;;;;;;17.88;12.15;;;;;;;16.44;100.00;101856.59;5051011;28;20112;-75
2023/05/25 05:05:39;;;;;;;14.80;13.13;;;;;;;16.46;100.00;101841.16;5050570;28;20085;-72
2023/05/25 05:08:05;;;;;;;18.05;13.73;;;;;;;16.72;100.00;101862.00;5050485;28;20049;-72
2023/05/25 05:10:30;;;;;;;19.95;13.80;;;;;;;16.53;100.00;101793.13;5033158;28;20479;-72
2023/05/25 05:12:56;;;;;;;17.73;13.52;;;;;;;17.09;100.00;101860.25;5050376;28;20039;-73
2023/05/25 05:15:21;;;;;;;18.73;13.80;;;;;;;17.02;100.00;101839.88;5032684;28;20029;-72
2023/05/25 05:17:46;;;;;;;15.90;13.02;;;;;;;17.20;100.00;101844.56;5050213;28;20096;-73
2023/05/25 05:20:12;;;;;;;15.73;12.50;;;;;;;17.27;100.00;101864.94;5050983;28;20042;-72
2023/05/25 05:22:37;;;;;;;16.58;12.65;;;;;;;16.82;100.00;101840.34;5033436;28;20438;-72
2023/05/25 05:25:03;;;;;;;16.67;12.63;;;;;;;16.25;100.00;101808.25;5051302;28;20029;-72
2023/05/25 05:27:29;;;;;;;17.27;12.18;;;;;;;17.39;100.00;101916.97;5050826;28;20120;-72
2023/05/25 05:29:54;;;;;;;19.13;13.52;;;;;;;17.06;100.00;101837.19;5050969;28;20456;-73
2023/05/25 05:32:20;;;;;;;17.63;13.40;;;;;;;17.58;100.00;101910.50;5050839;28;20048;-74
2023/05/25 05:34:45;;;;;;;18.00;13.20;;;;;;;18.07;100.00;101929.75;5051474;28;20037;-72
2023/05/25 05:37:11;;;;;;;17.67;12.90;;;;;;;17.72;100.00;101916.13;5050119;28;20040;-73
2023/05/25 05:39:36;;;;;;;17.80;12.68;;;;;;;18.11;100.00;101912.47;5050795;28;20031;-72
2023/05/25 05:42:02;;;;;;;16.85;13.30;;;;;;;18.72;100.00;101948.50;5050568;28;20032;-74
2023/05/25 05:44:27;;;;;;;24.52;18.05;;;;;;;18.22;100.00;101882.13;5052487;28;20029;-72
2023/05/25 05:46:58;;;;;;;17.98;15.02;;;;;;;18.19;100.00;101928.56;5040797;28;20064;-72
2023/05/25 05:49:29;;;;;;;15.00;12.48;;;;;;;18.46;100.00;101963.03;5057329;28;20139;-74
2023/05/25 05:51:55;;;;;;;15.20;12.52;;;;;;;18.91;100.00;101939.34;5075123;28;20497;-72
2023/05/25 05:54:20;;;;;;;17.20;12.80;;;;;;;18.75;100.00;101973.34;5074450;28;20064;-75
2023/05/25 05:56:45;;;;;;;17.20;12.40;;;;;;;19.32;100.00;101983.59;5056633;28;20029;-74
2023/05/25 05:59:11;;;;;;;16.17;12.20;;;;;;;19.88;100.00;102021.34;5056730;28;20098;-72
2023/05/25 06:01:37;;;;;;;15.65;12.60;;;;;;;18.69;100.00;101995.00;5056603;28;20066;-74
2023/05/25 06:04:05;;;;;;;13.90;11.75;;;;;;;19.36;100.00;101954.25;5074868;28;20028;-74
2023/05/25 06:06:32;;;;;;;18.77;12.15;;;;;;;19.38;100.00;101973.97;5074072;28;20052;-74
2023/05/25 06:08:59;;;;;;;13.32;11.93;;;;;;;20.06;100.00;102036.22;5074574;28;20040;-72
2023/05/25 06:11:25;;;;;;;16.50;11.70;;;;;;;20.19;100.00;102059.91;5057245;28;20060;-73
2023/05/25 06:13:50;;;;;;;16.50;11.90;;;;;;;19.55;100.00;102009.56;5074239;28;20091;-72
2023/05/25 06:16:16;;;;;;;16.83;11.30;;;;;;;20.55;100.00;102056.06;5074288;28;20028;-75
2023/05/25 06:18:41;;;;;;;16.08;11.57;;;;;;;20.14;100.00;101966.22;5073643;28;20426;-75
2023/05/25 06:21:07;;;;;;;14.75;12.02;;;;;;;20.78;100.00;102058.63;5074200;28;20071;-72
2023/05/25 06:23:32;;;;;;;18.50;12.20;;;;;;;20.38;100.00;102043.72;5074563;28;20047;-73
2023/05/25 06:26:03;;;;;;;18.63;12.82;;;;;;;20.04;100.00;102024.25;5073954;28;20020;-72
2023/05/25 06:28:28;;;;;;;19.42;13.20;;;;;;;20.24;100.00;101991.72;5056472;28;20040;-74
2023/05/25 06:30:53;;;;;;;23.85;12.40;;;;;;;20.67;100.00;102022.84;5074261;28;20028;-73
2023/05/25 06:33:19;;;;;;;13.57;12.25;;;;;;;21.31;100.00;102060.06;5074518;28;20115;-73
2023/05/25 06:35:45;;;;;;;18.75;12.35;;;;;;;20.91;100.00;102002.97;5074151;28;20070;-72
2023/05/25 06:38:11;;;;;;;21.23;13.45;;;;;;;21.20;100.00;102005.31;5055907;28;20036;-73
2023/05/25 06:40:36;;;;;;;18.65;12.05;;;;;;;21.80;100.00;102034.81;5073816;28;20410;-75
2023/05/25 06:43:02;;;;;;;17.77;11.82;;;;;;;21.36;100.00;101996.03;5073981;28;20039;-73
2023/05/25 06:45:27;;;;;;;18.65;11.68;;;;;;;21.98;100.00;101990.88;5056129;28;20131;-74
2023/05/25 06:47:53;;;;;;;15.02;10.88;;;;;;;22.22;100.00;102020.91;5074379;28;20024;-73
2023/05/25 06:50:18;;;;;;;15.55;12.63;;;;;;;21.99;100.00;101940.72;5074037;28;20025;-73
2023/05/25 06:52:43;;;;;;;17.20;11.85;;;;;;;21.42;100.00;101994.94;5073835;28;20031;-72
2023/05/25 06:55:09;;;;;;;15.82;11.70;;;;;;;21.96;100.00;101984.91;5072312;28;20028;-73
2023/05/25 06:57:35;;;;;;;12.63;10.15;;;;;;;22.04;100.00;101943.97;5054493;28;20036;-72
2023/05/25 07:00:00;;;;;;;15.30;11.05;;;;;;;22.80;100.00;101982.03;5073968;28;20066;-72
2023/05/25 07:02:26;;;;;;;16.35;10.73;;;;;;;21.28;100.00;101847.13;5072906;28;20032;-73
2023/05/25 07:04:57;;;;;;;12.32;10.00;;;;;;;21.71;100.00;101903.94;5073772;28;20040;-72
2023/05/25 07:07:22;;;;;;;11.85;10.65;;;;;;;22.70;100.00;101870.06;5055745;28;20025;-70
2023/05/25 07:09:48;;;;;;;11.52;9.85;;;;;;;22.70;100.00;101838.09;5072850;28;20053;-74
2023/05/25 07:12:13;;;;;;;14.63;11.38;;;;;;;22.17;100.00;101862.16;5073549;28;20044;-71
2023/05/25 07:14:39;;;;;;;17.20;11.35;;;;;;;22.13;100.00;101878.75;5073369;28;20500;-74
2023/05/25 07:17:05;;;;;;;15.23;11.70;;;;;;;22.72;100.00;101834.50;5055070;28;20043;-74
2023/05/25 07:19:31;;;;;;;18.17;11.98;;;;;;;23.34;100.00;101852.19;5073481;28;20428;-73
2023/05/25 07:21:56;;;;;;;17.30;11.73;;;;;;;23.38;100.00;101814.75;5072568;28;20033;-73
2023/05/25 07:24:22;;;;;;;15.05;11.13;;;;;;;23.16;100.00;101765.66;5072821;28;20123;-74
2023/05/25 07:26:48;;;;;;;16.70;10.75;;;;;;;23.00;100.00;101751.78;5054498;28;20119;-74
2023/05/25 07:29:14;;;;;;;13.90;9.60;;;;;;;23.63;100.00;101750.19;5055147;28;20031;-74
2023/05/25 07:31:39;;;;;;;14.27;9.93;;;;;;;24.55;100.00;101773.66;5073208;28;20021;-72
2023/05/25 07:34:05;;;;;;;12.50;10.27;;;;;;;23.16;100.00;101682.59;5072808;28;20048;-72
2023/05/25 07:36:30;;;;;;;16.77;11.60;;;;;;;22.48;100.00;101703.44;5072425;28;20419;-72
2023/05/25 07:38:57;;;;;;;17.17;11.93;;;;;;;23.67;100.00;101733.53;5072223;28;20523;-71
2023/05/25 07:41:22;;;;;;;19.27;11.85;;;;;;;23.50;100.00;101678.22;5071984;28;20479;-72
2023/05/25 07:43:47;;;;;;;19.98;11.80;;;;;;;24.01;100.00;101732.53;5040157;28;20035;-72
2023/05/25 07:46:13;;;;;;;19.52;10.90;;;;;;;24.58;100.00;101720.63;5065778;28;20032;-73
2023/05/25 07:48:39;;;;;;;19.88;11.52;;;;;;;23.88;100.00;101697.75;5054348;28;20055;-72
2023/05/25 07:51:04;;;;;;;17.58;11.65;;;;;;;24.34;100.00;101662.22;5071766;28;20033;-73
2023/05/25 07:53:30;;;;;;;14.90;11.45;;;;;;;24.70;100.00;101694.69;5054723;28;20033;-72
2023/05/25 07:55:55;;;;;;;19.45;11.38;;;;;;;24.77;100.00;101698.66;5053072;28;20039;-72
2023/05/25 07:58:21;;;;;;;16.25;12.05;;;;;;;24.49;100.00;101693.38;5053706;28;20102;-72
2023/05/25 08:00:48;;;;;;;15.68;11.43;;;;;;;25.15;100.00;101620.00;5053923;28;20028;-72
2023/05/25 08:03:13;;;;;;;14.68;10.93;;;;;;;25.41;100.00;101663.53;5054406;28;20029;-72
2023/05/25 08:05:39;;;;;;;16.50;10.65;;;;;;;25.66;100.00;101635.81;5053941;28;20148;-72
2023/05/25 08:08:04;;;;;;;11.45;8.15;;;;;;;26.16;100.00;101624.72;5071166;28;20025;-72
2023/05/25 08:10:31;;;;;;;12.02;7.68;;;;;;;24.77;100.00;101593.72;5053925;28;20031;-72
2023/05/25 08:12:57;;;;;;;17.45;7.57;;;;;;;25.45;100.00;101618.94;5072393;28;20052;-72
2023/05/25 08:15:22;;;;;;;9.02;6.22;;;;;;;26.41;100.00;101592.59;5053976;28;20032;-71
2023/05/25 08:17:49;;;;;;;8.70;4.78;;;;;;;26.36;100.00;101573.81;5054077;28;20465;-72
2023/05/25 08:20:15;;;;;;;6.45;5.07;;;;;;;26.09;100.00;101581.72;5054273;28;20033;-72
2023/05/25 08:22:42;;;;;;;10.65;4.55;;;;;;;26.28;100.00;101508.28;5054099;28;20029;-73
2023/05/25 08:25:07;;;;;;;6.13;4.65;;;;;;;25.38;100.00;101541.22;5071706;28;20411;-73
2023/05/25 08:27:33;;;;;;;18.45;9.70;;;;;;;25.36;100.00;101576.97;5054263;28;20032;-72
2023/05/25 08:29:58;;;;;;;7.90;5.68;;;;;;;25.92;100.00;101588.97;5071845;28;20087;-72
2023/05/25 08:32:24;;;;;;;7.68;4.10;;;;;;;24.93;100.00;101610.91;5053221;28;20514;-72
2023/05/25 08:34:51;;;;;;;6.13;4.15;;;;;;;26.12;100.00;101597.19;5071190;28;20041;-72
2023/05/25 08:37:18;;;;;;;5.75;4.38;;;;;;;26.57;100.00;101552.31;5071471;28;20043;-72
2023/05/25 08:39:44;;;;;;;6.70;3.60;;;;;;;25.84;100.00;101528.66;5071638;28;20032;-72
2023/05/25 08:42:09;;;;;;;6.63;4.00;;;;;;;25.49;100.00;101490.13;5071809;28;20482;-73
2023/05/25 08:44:36;;;;;;;8.20;5.43;;;;;;;25.51;100.00;101532.56;5071529;28;20124;-72
2023/05/25 08:47:08;;;;;;;8.15;4.18;;;;;;;25.72;100.00;101525.09;5071070;28;20522;-72
2023/05/25 08:49:37;;;;;;;5.57;4.60;;;;;;;26.40;100.00;101442.22;5071406;28;20082;-72
2023/05/25 08:52:03;;;;;;;5.88;5.00;;;;;;;26.32;100.00;101397.56;5071110;28;20025;-72
2023/05/25 08:54:33;;;;;;;7.15;4.55;;;;;;;27.29;100.00;101277.16;5071234;28;20032;-72
2023/05/25 08:57:07;;;;;;;5.00;3.80;;;;;;;26.22;100.00;101261.75;5070961;28;20041;-72
2023/05/25 08:59:52;;;;;;;5.45;4.20;;;;;;;26.96;100.00;101119.59;5071225;28;20051;-73
2023/05/25 09:02:55;;;;;;;4.18;3.42;;;;;;;27.21;100.00;101033.13;5071129;28;20078;-72
2023/05/25 09:05:21;;;;;;;6.40;3.85;;;;;;;26.30;100.00;100922.91;5053274;28;20028;-72
2023/05/25 09:07:48;;;;;;;4.30;3.60;;;;;;;26.51;100.00;100881.25;5071353;28;20035;-72
2023/05/25 09:10:14;;;;;;;4.80;3.72;;;;;;;26.04;100.00;100852.84;5071129;28;20052;-72
2023/05/25 09:12:41;;;;;;;4.80;3.97;;;;;;;25.45;100.00;100899.13;5071305;28;20415;-72
2023/05/25 09:15:09;;;;;;;4.45;3.80;;;;;;;25.08;100.00;100929.59;5052737;28;20097;-70
2023/05/25 09:17:35;;;;;;;4.78;3.78;;;;;;;25.17;100.00;100928.94;5052647;28;20119;-71
2023/05/25 09:20:00;;;;;;;6.40;4.57;;;;;;;25.09;100.00;100892.22;5070076;28;20081;-71
2023/05/25 09:22:26;;;;;;;5.13;4.10;;;;;;;24.53;100.00;100935.28;4717959;28;10000245;-73
2023/05/25 09:24:52;;;;;;;5.50;4.07;;;;;;;24.66;100.00;100974.28;5069651;28;20037;-72
2023/05/25 09:27:21;;;;;;;7.63;4.55;;;;;;;25.35;100.00;100979.69;5051586;28;20052;-72
2023/05/25 09:29:50;;;;;;;4.20;3.80;;;;;;;25.42;100.00;101006.97;5052346;28;20052;-72
2023/05/25 09:32:16;;;;;;;5.43;4.20;;;;;;;25.07;100.00;100982.63;5070280;28;20082;-71
2023/05/25 09:34:43;;;;;;;4.82;4.00;;;;;;;26.00;100.00;100913.97;5069178;28;20041;-72
2023/05/25 09:37:17;;;;;;;4.88;3.50;;;;;;;26.11;100.00;100924.44;5069650;28;20122;-73
2023/05/25 09:39:46;;;;;;;6.32;3.40;;;;;;;24.63;100.00;100805.41;5070499;28;20174;-75
2023/05/25 09:42:12;;;;;;;4.45;3.65;;;;;;;25.96;100.00;100946.44;5052847;28;20089;-72
2023/05/25 09:44:38;;;;;;;5.35;3.90;;;;;;;26.23;100.00;100928.69;5070319;28;20111;-72
2023/05/25 09:47:05;;;;;;;4.93;3.60;;;;;;;27.24;100.00;100884.78;5069373;28;20024;-73
2023/05/25 09:49:34;;;;;;;4.78;3.05;;;;;;;27.96;100.00;100830.75;5051128;28;20032;-72
2023/05/25 09:52:03;;;;;;;3.38;3.00;;;;;;;26.90;100.00;100806.75;5070456;28;20059;-71
2023/05/25 09:54:29;;;;;;;3.58;2.67;;;;;;;26.75;100.00;100785.34;5053138;28;20029;-72
2023/05/25 09:56:54;;;;;;;7.95;5.38;;;;;;;27.10;100.00;100785.84;5070711;28;20029;-72
2023/05/25 09:59:23;;;;;;;4.30;3.38;;;;;;;26.74;100.00;100741.09;5052851;28;20037;-72
2023/05/25 10:01:52;;;;;;;6.32;2.90;;;;;;;25.35;100.00;100747.06;5070620;28;20116;-72
2023/05/25 10:04:17;;;;;;;3.70;2.70;;;;;;;25.96;100.00;100743.94;5052891;28;20123;-72
2023/05/25 10:06:45;;;;;;;4.18;3.20;;;;;;;26.15;100.00;100824.16;5052999;28;20111;-72
2023/05/25 10:09:13;;;;;;;3.55;2.92;;;;;;;25.90;100.00;100780.09;5069459;28;20053;-72
2023/05/25 10:11:42;;;;;;;5.38;3.53;;;;;;;26.69;100.00;100801.47;5070433;28;20029;-73
2023/05/25 10:14:09;;;;;;;5.13;3.20;;;;;;;27.13;100.00;100790.00;5070920;28;20060;-72
2023/05/25 10:16:39;;;;;;;5.38;3.50;;;;;;;27.16;100.00;100810.63;5070431;28;20032;-73
2023/05/25 10:19:16;;;;;;;5.35;3.90;;;;;;;26.95;100.00;100872.47;5070599;28;20032;-72
2023/05/25 10:21:46;;;;;;;4.65;3.35;;;;;;;26.33;100.00;100900.94;5070887;28;20025;-73
2023/05/25 10:24:37;;;;;;;7.67;3.63;;;;;;;25.52;100.00;100913.31;5052686;28;20563;-72
2023/05/25 10:27:05;;;;;;;13.02;3.80;;;;;;;25.06;100.00;100904.63;5071073;28;20033;-72
2023/05/25 10:29:33;;;;;;;4.90;3.13;;;;;;;24.22;100.00;100919.34;5070784;28;20045;-72
2023/05/25 10:31:59;;;;;;;6.35;3.60;;;;;;;23.93;100.00;100976.72;5074767;28;20021;-72
2023/05/25 10:34:26;;;;;;;5.55;3.85;;;;;;;24.00;100.00;100920.81;5056640;28;20019;-72
2023/05/25 10:36:53;;;;;;;10.75;4.20;;;;;;;25.68;100.00;100945.94;5056414;28;20490;-71
2023/05/25 10:39:21;;;;;;;5.15;3.58;;;;;;;26.10;100.00;100923.63;5074124;28;20036;-72
2023/05/25 10:41:47;;;;;;;6.97;3.97;;;;;;;25.13;100.00;100950.09;5073734;28;20055;-71
2023/05/25 10:44:14;;;;;;;7.13;4.68;;;;;;;24.47;100.00;100951.34;5074516;28;20067;-72
2023/05/25 10:46:40;;;;;;;8.05;4.45;;;;;;;24.29;100.00;100931.81;5073773;28;20029;-73
2023/05/25 10:49:05;;;;;;;4.93;4.15;;;;;;;24.31;100.00;100838.09;5055851;28;20038;-72
2023/05/25 10:51:40;;;;;;;6.47;4.07;;;;;;;24.42;100.00;100794.81;5073914;28;20024;-72
2023/05/25 10:54:06;;;;;;;5.57;4.00;;;;;;;24.24;100.00;100855.91;5074043;28;20025;-71
2023/05/25 10:56:32;;;;;;;6.40;4.05;;;;;;;24.65;100.00;100852.94;5073533;28;20058;-71
2023/05/25 10:58:57;;;;;;;5.95;4.30;;;;;;;24.25;100.00;100856.72;5073909;28;20028;-72
2023/05/25 11:01:23;;;;;;;6.55;4.32;;;;;;;24.02;100.00;100794.22;5055901;28;20119;-72
2023/05/25 11:03:56;;;;;;;7.40;4.20;;;;;;;23.80;100.00;100814.81;5074082;28;20457;-73
2023/05/25 11:06:40;;;;;;;4.20;3.80;;;;;;;25.11;100.00;100866.91;5074011;28;20029;-73